Equality — ODTX — position and weather

sailwx.info

Track history (hours):
 
Tides and Currents Weather Stations Pressure Air Temp Water Temp Dewpoint Dewpoint Depression Visibility Wind Speed Wind Dir Waves Ship Positions

Equality

Last reported at 2017-May-20 13:22 UTC. Time now 2017-May-23 08:39 UTC.
Position N 34°37' E 033°06'.

Length 124 m; draft 4.8 m.

Type: Cargo ship. MMSI: 450501000.

Date/timePositionNaut miles runAvg speedWind from/ knotsBaromVisibWave heightAir tempDewpointWater temp
2017-May-20 13:22N 34°37' E 033°06'3 7.6
2017-May-20 12:57N 34°40' E 033°06'0 0.8
2017-May-20 12:29N 34°40' E 033°05'0 0.3
2017-May-20 12:00N 34°40' E 033°05'0 0.1
2017-May-20 11:30N 34°40' E 033°05'0 0.2
2017-May-20 10:58N 34°40' E 033°05'0 0.1
2017-May-20 10:29N 34°40' E 033°05'0 0.1
2017-May-20 10:00N 34°40' E 033°05'0 0.0
2017-May-20 09:29N 34°40' E 033°05'0 0.1
2017-May-20 08:59N 34°40' E 033°05'0 0.1
2017-May-20 08:30N 34°40' E 033°05'0 0.4
2017-May-20 07:59N 34°40' E 033°05'  
2017-May-16 04:10N 33°59' E 034°35'1710.2
2017-May-16 02:32N 34°01' E 034°15'110.1
2017-May-16 02:27N 34°01' E 034°14'610.2
2017-May-16 01:51N 34°01' E 034°07'24310.1
2017-May-15 01:48N 34°25' E 029°15'64 9.8
2017-May-14 19:20N 34°32' E 027°58'310.0
2017-May-14 19:00N 34°32' E 027°54'516 9.9
2017-May-12 15:01N 35°55' E 017°31'128 9.5
2017-May-12 01:37N 36°18' E 014°55'1 9.6
2017-May-12 01:30N 36°18' E 014°54'5 9.6
2017-May-12 01:00N 36°20' E 014°48'5 9.7
2017-May-12 00:30N 36°21' E 014°42'5 9.6
2017-May-12 00:00N 36°23' E 014°37'5 9.7
2017-May-11 23:31N 36°24' E 014°31'5 9.8
2017-May-11 23:00N 36°26' E 014°25'5 9.9
2017-May-11 22:30N 36°27' E 014°19'5 9.6
2017-May-11 22:00N 36°29' E 014°14'5 9.3
2017-May-11 21:31N 36°30' E 014°08'5 9.0
2017-May-11 21:00N 36°32' E 014°03'4 8.7
2017-May-11 20:30N 36°33' E 013°58'4 8.5
2017-May-11 20:00N 36°35' E 013°53'4 8.4
2017-May-11 19:30N 36°37' E 013°49'4 8.4
2017-May-11 19:00N 36°39' E 013°44'6 8.6
2017-May-11 18:21N 36°41' E 013°37'4 8.6
2017-May-11 17:53N 36°42' E 013°32'3 8.6
2017-May-11 17:30N 36°43' E 013°28'4 8.7
2017-May-11 17:00N 36°44' E 013°23'4 8.5
2017-May-11 16:30N 36°46' E 013°18'8 8.7
2017-May-11 15:35N 36°47' E 013°09'2 8.4
2017-May-11 15:19N 36°48' E 013°06'5 8.6
2017-May-11 14:43N 36°51' E 013°00'2 8.5
2017-May-11 14:30N 36°52' E 012°58'11 8.5
2017-May-11 13:14N 36°55' E 012°45'  
Track history (hours):
 
Tides and Currents Weather Stations Pressure Air Temp Water Temp Dewpoint Dewpoint Depression Visibility Wind Speed Wind Dir Waves Ship Positions

Equality

Last reported at 2017-May-20 13:22 UTC. Time now 2017-May-23 08:39 UTC.
Position N 34°37' E 033°06'.

Length 124 m; draft 4.8 m.

Type: Cargo ship. MMSI: 450501000.

Date/timePositionNaut miles runAvg speedWind from/ knotsBaromVisibWave heightAir tempDewpointWater temp
2017-May-20 13:22N 34°37' E 033°06'3 7.6
2017-May-20 12:57N 34°40' E 033°06'0 0.8
2017-May-20 12:29N 34°40' E 033°05'0 0.3
2017-May-20 12:00N 34°40' E 033°05'0 0.1
2017-May-20 11:30N 34°40' E 033°05'0 0.2
2017-May-20 10:58N 34°40' E 033°05'0 0.1
2017-May-20 10:29N 34°40' E 033°05'0 0.1
2017-May-20 10:00N 34°40' E 033°05'0 0.0
2017-May-20 09:29N 34°40' E 033°05'0 0.1
2017-May-20 08:59N 34°40' E 033°05'0 0.1
2017-May-20 08:30N 34°40' E 033°05'0 0.4
2017-May-20 07:59N 34°40' E 033°05'  
2017-May-16 04:10N 33°59' E 034°35'1710.2
2017-May-16 02:32N 34°01' E 034°15'110.1
2017-May-16 02:27N 34°01' E 034°14'610.2
2017-May-16 01:51N 34°01' E 034°07'24310.1
2017-May-15 01:48N 34°25' E 029°15'64 9.8
2017-May-14 19:20N 34°32' E 027°58'310.0
2017-May-14 19:00N 34°32' E 027°54'516 9.9
2017-May-12 15:01N 35°55' E 017°31'128 9.5
2017-May-12 01:37N 36°18' E 014°55'1 9.6
2017-May-12 01:30N 36°18' E 014°54'5 9.6
2017-May-12 01:00N 36°20' E 014°48'5 9.7
2017-May-12 00:30N 36°21' E 014°42'5 9.6
2017-May-12 00:00N 36°23' E 014°37'5 9.7
2017-May-11 23:31N 36°24' E 014°31'5 9.8
2017-May-11 23:00N 36°26' E 014°25'5 9.9
2017-May-11 22:30N 36°27' E 014°19'5 9.6
2017-May-11 22:00N 36°29' E 014°14'5 9.3
2017-May-11 21:31N 36°30' E 014°08'5 9.0
2017-May-11 21:00N 36°32' E 014°03'4 8.7
2017-May-11 20:30N 36°33' E 013°58'4 8.5
2017-May-11 20:00N 36°35' E 013°53'4 8.4
2017-May-11 19:30N 36°37' E 013°49'4 8.4
2017-May-11 19:00N 36°39' E 013°44'6 8.6
2017-May-11 18:21N 36°41' E 013°37'4 8.6
2017-May-11 17:53N 36°42' E 013°32'3 8.6
2017-May-11 17:30N 36°43' E 013°28'4 8.7
2017-May-11 17:00N 36°44' E 013°23'4 8.5
2017-May-11 16:30N 36°46' E 013°18'8 8.7
2017-May-11 15:35N 36°47' E 013°09'2 8.4
2017-May-11 15:19N 36°48' E 013°06'5 8.6
2017-May-11 14:43N 36°51' E 013°00'2 8.5
2017-May-11 14:30N 36°52' E 012°58'11 8.5
2017-May-11 13:14N 36°55' E 012°45'  

Dump ship's entire track history